createdAt,value
2018-08-17T00:01:56.128Z,100299.71
2018-08-17T00:04:24.180Z,100301.52
2018-08-17T00:06:52.256Z,100297.01
2018-08-17T00:09:20.324Z,100296.30
2018-08-17T00:11:48.390Z,100297.10
2018-08-17T00:14:16.468Z,100300.41
2018-08-17T00:16:44.544Z,100292.50
2018-08-17T00:19:12.601Z,100293.81
2018-08-17T00:21:40.669Z,100287.87
2018-08-17T00:24:15.481Z,100284.37
2018-08-17T00:26:43.548Z,100285.76
2018-08-17T00:29:11.645Z,100283.11
2018-08-17T00:31:39.740Z,100286.77
2018-08-17T00:34:07.905Z,100280.11
2018-08-17T00:36:35.949Z,100280.78
2018-08-17T00:39:05.983Z,100282.14
2018-08-17T00:41:34.076Z,100283.67
2018-08-17T00:44:02.214Z,100278.73
2018-08-17T00:46:30.307Z,100288.42
2018-08-17T00:48:58.366Z,100274.67
2018-08-17T00:51:26.435Z,100283.64
2018-08-17T00:53:54.492Z,100277.14
2018-08-17T00:56:22.590Z,100278.13
2018-08-17T00:58:50.676Z,100284.70
2018-08-17T01:01:18.760Z,100281.53
2018-08-17T01:03:46.849Z,100281.13
2018-08-17T01:06:15.927Z,100284.77
2018-08-17T01:08:43.986Z,100280.50
2018-08-17T01:11:12.074Z,100284.13
2018-08-17T01:13:40.149Z,100281.48
2018-08-17T01:16:08.309Z,100284.92
2018-08-17T01:18:36.385Z,100281.65
2018-08-17T01:21:04.579Z,100290.02
2018-08-17T01:23:32.668Z,100283.88
2018-08-17T01:26:00.731Z,100290.84
2018-08-17T01:28:28.852Z,100295.28
2018-08-17T01:30:56.918Z,100288.41
2018-08-17T01:33:31.343Z,100287.80
2018-08-17T01:35:59.437Z,100271.74
2018-08-17T01:38:27.495Z,100282.85
2018-08-17T01:40:55.586Z,100280.05
2018-08-17T01:43:23.664Z,100280.29
2018-08-17T01:45:51.749Z,100279.70
2018-08-17T01:48:19.891Z,100282.50
2018-08-17T01:50:48.011Z,100277.52
2018-08-17T01:53:16.079Z,100268.94
2018-08-17T01:55:44.172Z,100277.98
2018-08-17T01:58:12.263Z,100270.31
2018-08-17T02:00:40.353Z,100280.29
2018-08-17T02:03:08.479Z,100280.62
2018-08-17T02:05:36.567Z,100282.45
2018-08-17T02:08:04.651Z,100277.03
2018-08-17T02:10:32.707Z,100281.70
2018-08-17T02:13:00.805Z,100279.88
2018-08-17T02:15:28.898Z,100277.30
2018-08-17T02:17:56.967Z,100268.23
2018-08-17T02:20:25.044Z,100272.42
2018-08-17T02:22:53.108Z,100273.12
2018-08-17T02:25:21.171Z,100274.27
2018-08-17T02:27:49.248Z,100273.91
2018-08-17T02:30:17.317Z,100276.86
2018-08-17T02:32:45.443Z,100276.92
2018-08-17T02:35:13.467Z,100277.95
2018-08-17T02:37:41.557Z,100276.78
2018-08-17T02:40:09.635Z,100272.34
2018-08-17T02:42:37.702Z,100279.44
2018-08-17T02:45:06.184Z,100276.67
2018-08-17T02:47:34.285Z,100269.62
2018-08-17T02:50:02.352Z,100271.16
2018-08-17T02:52:30.438Z,100271.86
2018-08-17T02:54:58.534Z,100265.51
2018-08-17T02:57:26.608Z,100276.69
2018-08-17T02:59:54.663Z,100275.41
2018-08-17T03:02:22.759Z,100274.31
2018-08-17T03:04:50.829Z,100274.77
2018-08-17T03:07:18.910Z,100275.41
2018-08-17T03:09:46.959Z,100271.10
2018-08-17T03:12:15.063Z,100268.25
2018-08-17T03:14:43.143Z,100273.17
2018-08-17T03:17:11.228Z,100273.75
2018-08-17T03:19:39.304Z,100278.45
2018-08-17T03:22:07.381Z,100274.19
2018-08-17T03:24:35.471Z,100283.85
2018-08-17T03:27:03.587Z,100284.52
2018-08-17T03:29:31.649Z,100278.65
2018-08-17T03:31:59.703Z,100277.68
2018-08-17T03:34:27.771Z,100282.27
2018-08-17T03:36:55.878Z,100286.02
2018-08-17T03:39:23.951Z,100281.22
2018-08-17T03:41:52.062Z,100284.86
2018-08-17T03:44:20.137Z,100292.08
2018-08-17T03:46:48.227Z,100293.23
2018-08-17T03:49:16.314Z,100297.09
2018-08-17T03:51:44.384Z,100295.16
2018-08-17T03:54:12.464Z,100294.53
2018-08-17T03:56:40.515Z,100304.83
2018-08-17T03:59:08.665Z,100302.45
2018-08-17T04:01:36.743Z,100308.81
2018-08-17T04:04:04.815Z,100302.95
2018-08-17T04:06:32.885Z,100307.54
2018-08-17T04:09:00.955Z,100303.73
2018-08-17T04:11:29.027Z,100303.78
2018-08-17T04:13:57.204Z,100301.34
2018-08-17T04:16:25.280Z,100316.34
2018-08-17T04:19:00.305Z,100315.93
2018-08-17T04:21:29.778Z,100318.28
2018-08-17T04:23:58.018Z,100319.75
2018-08-17T04:26:25.951Z,100320.21
2018-08-17T04:28:54.030Z,100323.19
2018-08-17T04:31:22.247Z,100316.73
2018-08-17T04:33:50.336Z,100320.41
2018-08-17T04:36:18.848Z,100324.63
2018-08-17T04:38:47.629Z,100329.09
2018-08-17T04:41:15.695Z,100332.09
2018-08-17T04:43:43.847Z,100329.48
2018-08-17T04:46:11.879Z,100335.09
2018-08-17T04:48:39.953Z,100328.60
2018-08-17T04:51:08.364Z,100333.55
2018-08-17T04:53:36.498Z,100338.13
2018-08-17T04:56:04.558Z,100336.43
2018-08-17T04:58:32.623Z,100337.50
2018-08-17T05:01:00.713Z,100340.98
2018-08-17T05:03:28.867Z,100335.15
2018-08-17T05:05:56.890Z,100345.81
2018-08-17T05:08:25.026Z,100353.41
2018-08-17T05:10:53.115Z,100354.62
2018-08-17T05:13:21.199Z,100354.88
2018-08-17T05:15:49.255Z,100351.34
2018-08-17T05:18:17.332Z,100349.67
2018-08-17T05:20:45.399Z,100351.99
2018-08-17T05:23:13.946Z,100357.08
2018-08-17T05:25:41.964Z,100363.20
2018-08-17T05:28:10.040Z,100369.83
2018-08-17T05:30:38.108Z,100368.97
2018-08-17T05:33:06.215Z,100371.50
2018-08-17T05:35:34.278Z,100373.72
2018-08-17T05:38:02.387Z,100373.17
2018-08-17T05:40:30.536Z,100372.34
2018-08-17T05:42:58.644Z,100363.53
2018-08-17T05:45:26.724Z,100361.63
2018-08-17T05:47:54.808Z,100364.55
2018-08-17T05:50:22.871Z,100370.88
2018-08-17T05:52:50.948Z,100372.14
2018-08-17T05:55:19.037Z,100377.50
2018-08-17T05:57:47.132Z,100386.88
2018-08-17T06:00:15.213Z,100410.70
2018-08-17T06:02:44.167Z,100408.34
2018-08-17T06:05:12.323Z,100411.95
2018-08-17T06:07:40.481Z,100404.14
2018-08-17T06:10:10.263Z,100411.02
2018-08-17T06:12:38.404Z,100403.73
2018-08-17T06:15:06.934Z,100397.70
2018-08-17T06:17:35.030Z,100400.69
2018-08-17T06:20:03.159Z,100400.52
2018-08-17T06:22:31.252Z,100407.41
2018-08-17T06:24:59.362Z,100399.84
2018-08-17T06:27:27.439Z,100401.83
2018-08-17T06:29:55.567Z,100402.25
2018-08-17T06:32:23.581Z,100412.41
2018-08-17T06:34:51.649Z,100412.16
2018-08-17T06:37:19.827Z,100421.75
2018-08-17T06:39:47.867Z,100406.86
2018-08-17T06:42:15.971Z,100424.07
2018-08-17T06:44:44.064Z,100423.82
2018-08-17T06:47:12.136Z,100424.95
2018-08-17T06:49:40.216Z,100421.13
2018-08-17T06:52:08.309Z,100434.52
2018-08-17T06:54:36.410Z,100427.73
2018-08-17T06:57:04.530Z,100428.32
2018-08-17T06:59:32.609Z,100438.13
2018-08-17T07:02:00.669Z,100440.30
2018-08-17T07:04:28.800Z,100440.28
2018-08-17T07:06:56.863Z,100442.74
2018-08-17T07:09:24.967Z,100446.55
2018-08-17T07:11:53.031Z,100450.09
2018-08-17T07:14:21.132Z,100453.09
2018-08-17T07:16:49.285Z,100455.29
2018-08-17T07:19:17.408Z,100441.91
2018-08-17T07:21:45.468Z,100448.98
2018-08-17T07:24:13.569Z,100451.42
2018-08-17T07:26:41.663Z,100444.56
2018-08-17T07:29:09.750Z,100448.05
2018-08-17T07:31:37.865Z,100449.12
2018-08-17T07:34:05.979Z,100450.98
2018-08-17T07:36:34.072Z,100452.88
2018-08-17T07:39:02.192Z,100458.37
2018-08-17T07:41:30.348Z,100461.05
2018-08-17T07:43:58.416Z,100468.42
2018-08-17T07:46:26.506Z,100472.22
2018-08-17T07:48:54.690Z,100474.65
2018-08-17T07:51:22.908Z,100475.14
2018-08-17T07:53:50.991Z,100477.87
2018-08-17T07:56:19.067Z,100482.38
2018-08-17T07:58:47.215Z,100489.48
2018-08-17T08:01:15.467Z,100490.84
2018-08-17T08:03:43.607Z,100489.73
2018-08-17T08:06:11.688Z,100490.55
2018-08-17T08:08:39.775Z,100490.64
2018-08-17T08:11:08.130Z,100496.98
2018-08-17T08:13:36.348Z,100494.48
2018-08-17T08:16:04.803Z,100503.69
2018-08-17T08:18:32.904Z,100505.55
2018-08-17T08:21:01.000Z,100498.66
2018-08-17T08:23:35.650Z,100504.25
2018-08-17T08:26:03.781Z,100507.75
2018-08-17T08:28:31.815Z,100513.30
2018-08-17T08:30:59.888Z,100513.14
2018-08-17T08:33:28.045Z,100506.39
2018-08-17T08:35:56.103Z,100511.83
2018-08-17T08:38:24.176Z,100506.30
2018-08-17T08:40:52.263Z,100518.80
2018-08-17T08:43:20.357Z,100519.56
2018-08-17T08:45:48.465Z,100522.81
2018-08-17T08:48:16.532Z,100517.27
2018-08-17T08:50:44.636Z,100524.02
2018-08-17T08:53:13.433Z,100521.57
2018-08-17T08:55:41.516Z,100522.92
2018-08-17T08:58:09.575Z,100518.37
2018-08-17T09:00:37.688Z,100520.62
2018-08-17T09:03:06.553Z,100528.30
2018-08-17T09:05:34.661Z,100527.04
2018-08-17T09:08:02.749Z,100526.19
2018-08-17T09:10:31.003Z,100520.49
2018-08-17T09:12:59.065Z,100523.83
2018-08-17T09:15:27.165Z,100525.81
2018-08-17T09:17:55.277Z,100527.88
2018-08-17T09:20:23.375Z,100526.88
2018-08-17T09:22:51.423Z,100525.09
2018-08-17T09:25:22.596Z,100529.30
2018-08-17T09:27:50.659Z,100525.68
2018-08-17T09:30:18.830Z,100527.02
2018-08-17T09:32:46.815Z,100521.34
2018-08-17T09:35:14.907Z,100524.77
2018-08-17T09:40:17.672Z,100531.68
2018-08-17T09:42:45.819Z,100532.44
2018-08-17T09:45:14.058Z,100532.59
2018-08-17T09:47:42.164Z,100534.52
2018-08-17T09:50:12.878Z,100525.85
2018-08-17T09:52:41.113Z,100525.06
2018-08-17T09:55:09.240Z,100531.73
2018-08-17T09:57:37.323Z,100534.41
2018-08-17T10:00:06.442Z,100525.58
2018-08-17T10:02:39.843Z,100530.70
2018-08-17T10:05:13.273Z,100532.80
2018-08-17T10:07:46.760Z,100526.27
2018-08-17T10:10:24.475Z,100523.31
2018-08-17T10:12:52.946Z,100519.91
2018-08-17T10:15:21.725Z,100513.45
2018-08-17T10:17:49.852Z,100517.23
2018-08-17T10:20:21.350Z,100507.92
2018-08-17T10:22:49.447Z,100508.88
2018-08-17T10:25:20.806Z,100502.72
2018-08-17T10:27:50.091Z,100513.88
2018-08-17T10:30:19.288Z,100514.78
2018-08-17T10:32:55.079Z,100518.63
2018-08-17T10:35:25.237Z,100510.41
2018-08-17T10:37:54.971Z,100508.17
2018-08-17T10:40:23.367Z,100515.88
2018-08-17T10:42:51.488Z,100515.13
2018-08-17T10:45:20.556Z,100516.03
2018-08-17T10:47:49.534Z,100512.88
2018-08-17T10:50:19.631Z,100511.69
2018-08-17T10:52:49.874Z,100513.77
2018-08-17T10:55:17.975Z,100511.02
2018-08-17T10:57:46.168Z,100510.73
2018-08-17T11:00:17.035Z,100517.03
2018-08-17T11:02:45.435Z,100510.85
2018-08-17T11:05:14.920Z,100503.97
2018-08-17T11:07:44.403Z,100492.55
2018-08-17T11:10:12.556Z,100492.34
2018-08-17T11:12:42.920Z,100496.78
2018-08-17T11:15:11.231Z,100492.83
2018-08-17T11:17:39.521Z,100490.09
2018-08-17T11:20:07.614Z,100479.99
2018-08-17T11:22:36.206Z,100478.38
2018-08-17T11:25:06.040Z,100477.17
2018-08-17T11:27:34.633Z,100478.00
2018-08-17T11:30:02.827Z,100479.63
2018-08-17T11:32:30.948Z,100476.63
2018-08-17T11:34:59.009Z,100481.45
2018-08-17T11:37:27.080Z,100481.57
2018-08-17T11:40:03.344Z,100483.27
2018-08-17T11:42:40.979Z,100474.95
2018-08-17T11:45:12.343Z,100481.41
2018-08-17T11:47:41.551Z,100481.64
2018-08-17T11:50:12.257Z,100479.27
2018-08-17T11:52:45.556Z,100482.38
2018-08-17T11:55:13.628Z,100483.20
2018-08-17T11:57:41.728Z,100480.77
2018-08-17T12:00:09.796Z,100484.08
2018-08-17T12:02:37.890Z,100486.05
2018-08-17T12:05:06.051Z,100479.89
2018-08-17T12:07:34.139Z,100476.34
2018-08-17T12:10:02.919Z,100473.55
2018-08-17T12:12:32.795Z,100476.68
2018-08-17T12:15:00.911Z,100479.50
2018-08-17T12:17:29.048Z,100476.03
2018-08-17T12:19:57.169Z,100481.47
2018-08-17T12:22:25.291Z,100479.93
2018-08-17T12:24:53.382Z,100479.09
2018-08-17T12:27:21.478Z,100478.06
2018-08-17T12:29:49.560Z,100471.16
2018-08-17T12:32:17.740Z,100467.76
2018-08-17T12:34:45.766Z,100462.84
2018-08-17T12:37:13.908Z,100464.08
2018-08-17T12:39:41.980Z,100459.29
2018-08-17T12:42:10.068Z,100454.78
2018-08-17T12:44:38.178Z,100453.77
2018-08-17T12:47:06.300Z,100453.25
2018-08-17T12:49:34.413Z,100455.05
2018-08-17T12:52:02.546Z,100446.38
2018-08-17T12:54:31.871Z,100450.92
2018-08-17T12:57:00.864Z,100444.73
2018-08-17T12:59:29.395Z,100444.02
2018-08-17T13:01:57.578Z,100449.72
2018-08-17T13:04:26.583Z,100445.08
2018-08-17T13:06:54.680Z,100442.80
2018-08-17T13:09:23.038Z,100438.91
2018-08-17T13:12:00.323Z,100448.56
2018-08-17T13:14:28.695Z,100445.05
2018-08-17T13:16:58.480Z,100446.33
2018-08-17T13:19:26.648Z,100441.96
2018-08-17T13:21:54.732Z,100436.59
2018-08-17T13:24:22.800Z,100439.84
2018-08-17T13:26:50.915Z,100445.62
2018-08-17T13:29:18.987Z,100441.73
2018-08-17T13:31:47.067Z,100439.30
2018-08-17T13:34:15.146Z,100438.79
2018-08-17T13:36:43.256Z,100434.91
2018-08-17T13:39:11.922Z,100433.12
2018-08-17T13:41:40.041Z,100436.44
2018-08-17T13:44:09.716Z,100420.34
2018-08-17T13:46:37.791Z,100429.84
2018-08-17T13:49:06.138Z,100417.48
2018-08-17T13:51:34.134Z,100421.62
2018-08-17T13:54:02.207Z,100422.61
2018-08-17T13:56:30.291Z,100423.28
2018-08-17T13:58:58.376Z,100419.39
2018-08-17T14:01:26.530Z,100420.94
2018-08-17T14:03:54.650Z,100416.72
2018-08-17T14:06:22.791Z,100414.72
2018-08-17T14:08:50.864Z,100415.63
2018-08-17T14:11:18.975Z,100412.80
2018-08-17T14:13:47.077Z,100412.28
2018-08-17T14:16:15.168Z,100411.66
2018-08-17T14:18:43.252Z,100411.02
2018-08-17T14:21:11.348Z,100412.47
2018-08-17T14:23:39.488Z,100413.19
2018-08-17T14:26:07.571Z,100414.30
2018-08-17T14:28:35.651Z,100406.47
2018-08-17T14:31:03.735Z,100419.28
2018-08-17T14:33:31.832Z,100424.21
2018-08-17T14:35:59.964Z,100426.03
2018-08-17T14:38:31.212Z,100429.75
2018-08-17T14:40:59.427Z,100431.23
2018-08-17T14:43:27.781Z,100431.88
2018-08-17T14:45:55.901Z,100432.68
2018-08-17T14:48:24.011Z,100439.15
2018-08-17T14:50:52.086Z,100445.27
2018-08-17T14:53:20.207Z,100439.88
2018-08-17T14:55:48.299Z,100445.09
2018-08-17T14:58:16.471Z,100441.39
2018-08-17T15:00:44.605Z,100447.88
2018-08-17T15:03:12.793Z,100442.56
2018-08-17T15:05:40.929Z,100442.59
2018-08-17T15:08:09.001Z,100435.88
2018-08-17T15:10:37.081Z,100450.40
2018-08-17T15:13:05.217Z,100431.31
2018-08-17T15:15:33.264Z,100440.92
2018-08-17T15:18:01.357Z,100446.74
2018-08-17T15:20:29.495Z,100457.08
2018-08-17T15:22:57.583Z,100455.84
2018-08-17T15:25:25.773Z,100458.78
2018-08-17T15:27:53.847Z,100468.09
2018-08-17T15:30:22.056Z,100463.91
2018-08-17T15:32:50.540Z,100459.59
2018-08-17T15:35:18.636Z,100468.11
2018-08-17T15:37:46.699Z,100460.36
2018-08-17T15:40:14.863Z,100472.66
2018-08-17T15:42:42.998Z,100460.86
2018-08-17T15:45:11.455Z,100461.03
2018-08-17T15:47:39.510Z,100462.09
2018-08-17T15:50:12.472Z,100457.67
2018-08-17T15:52:40.551Z,100462.69
2018-08-17T15:55:08.681Z,100469.69
2018-08-17T15:57:36.893Z,100475.34
2018-08-17T16:00:06.806Z,100468.32
2018-08-17T16:02:35.042Z,100477.73
2018-08-17T16:05:03.338Z,100479.92
2018-08-17T16:07:31.421Z,100475.02
2018-08-17T16:09:59.543Z,100478.50
2018-08-17T16:12:27.617Z,100482.14
2018-08-17T16:14:55.780Z,100491.77
2018-08-17T16:17:23.861Z,100495.03
2018-08-17T16:19:51.980Z,100487.23
2018-08-17T16:22:20.064Z,100497.87
2018-08-17T16:24:48.357Z,100492.84
2018-08-17T16:27:16.357Z,100489.90
2018-08-17T16:29:44.483Z,100493.36
2018-08-17T16:32:12.580Z,100495.94
2018-08-17T16:34:40.697Z,100499.44
2018-08-17T16:37:08.787Z,100504.20
2018-08-17T16:39:43.387Z,100501.50
2018-08-17T16:42:13.722Z,100506.39
2018-08-17T16:44:41.925Z,100511.84
2018-08-17T16:47:09.959Z,100517.05
2018-08-17T16:49:38.073Z,100513.93
2018-08-17T16:52:06.134Z,100517.36
2018-08-17T16:54:34.277Z,100511.80
2018-08-17T16:57:02.415Z,100517.80
2018-08-17T16:59:30.468Z,100528.44
2018-08-17T17:01:58.552Z,100524.86
2018-08-17T17:04:26.640Z,100529.64
2018-08-17T17:06:54.722Z,100531.20
2018-08-17T17:09:22.795Z,100537.23
2018-08-17T17:11:50.881Z,100545.32
2018-08-17T17:14:19.022Z,100546.48
2018-08-17T17:16:48.343Z,100537.69
2018-08-17T17:19:20.960Z,100538.02
2018-08-17T17:21:50.023Z,100540.50
2018-08-17T17:24:18.721Z,100542.33
2018-08-17T17:26:46.807Z,100552.58
2018-08-17T17:29:14.939Z,100552.30
2018-08-17T17:31:43.676Z,100552.39
2018-08-17T17:34:12.076Z,100565.41
2018-08-17T17:36:40.164Z,100569.91
2018-08-17T17:39:10.620Z,100569.80
2018-08-17T17:41:38.777Z,100575.39
2018-08-17T17:44:07.124Z,100579.97
2018-08-17T17:46:35.225Z,100582.39
2018-08-17T17:49:03.384Z,100589.14
2018-08-17T17:51:31.502Z,100594.95
2018-08-17T17:53:59.592Z,100593.95
2018-08-17T17:56:27.716Z,100596.47
2018-08-17T17:59:00.891Z,100600.72
2018-08-17T18:01:29.422Z,100599.44
2018-08-17T18:03:57.531Z,100594.03
2018-08-17T18:06:25.635Z,100608.31
2018-08-17T18:08:53.724Z,100625.31
2018-08-17T18:11:21.805Z,100623.63
2018-08-17T18:13:49.902Z,100622.93
2018-08-17T18:16:18.012Z,100620.56
2018-08-17T18:18:46.074Z,100630.99
2018-08-17T18:21:14.181Z,100649.91
2018-08-17T18:23:42.246Z,100654.06
2018-08-17T18:26:15.443Z,100668.23
2018-08-17T18:28:43.522Z,100672.59
2018-08-17T18:31:11.617Z,100676.50
2018-08-17T18:33:39.728Z,100680.64
2018-08-17T18:36:07.817Z,100684.26
2018-08-17T18:38:35.900Z,100689.47
2018-08-17T18:41:03.991Z,100697.13
2018-08-17T18:43:32.052Z,100699.87
2018-08-17T18:46:00.165Z,100706.16
2018-08-17T18:48:28.279Z,100707.86
2018-08-17T18:50:56.378Z,100705.08
2018-08-17T18:53:24.566Z,100710.28
2018-08-17T18:55:52.953Z,100711.94
2018-08-17T18:58:21.171Z,100715.73
2018-08-17T19:03:42.848Z,100725.30
2018-08-17T19:06:11.212Z,100728.59
2018-08-17T19:08:39.747Z,100737.88
2018-08-17T19:11:08.091Z,100745.51
2018-08-17T19:13:36.366Z,100753.19
2018-08-17T19:16:05.384Z,100761.89
2018-08-17T19:18:33.640Z,100752.60
2018-08-17T19:21:05.910Z,100765.73
2018-08-17T19:23:34.290Z,100763.81
2018-08-17T19:26:02.453Z,100775.28
2018-08-17T19:28:30.597Z,100780.45
2018-08-17T19:30:59.077Z,100782.58
2018-08-17T19:33:27.260Z,100783.13
2018-08-17T19:35:56.527Z,100785.48
2018-08-17T19:38:24.869Z,100787.13
2018-08-17T19:40:53.109Z,100793.67
2018-08-17T19:43:21.349Z,100791.34
2018-08-17T19:45:49.596Z,100785.80
2018-08-17T19:48:19.041Z,100791.22
2018-08-17T19:50:47.283Z,100784.89
2018-08-17T19:53:15.463Z,100797.25
2018-08-17T19:55:43.765Z,100796.80
2018-08-17T19:58:12.022Z,100798.19
2018-08-17T20:00:40.195Z,100798.47
2018-08-17T20:03:08.441Z,100796.28
2018-08-17T20:05:37.644Z,100802.22
2018-08-17T20:08:05.938Z,100797.96
2018-08-17T20:10:35.217Z,100800.66
2018-08-17T20:13:03.494Z,100806.17
2018-08-17T20:15:31.797Z,100813.59
2018-08-17T20:18:00.050Z,100815.77
2018-08-17T20:20:28.317Z,100823.69
2018-08-17T20:23:00.365Z,100834.40
2018-08-17T20:25:28.657Z,100830.20
2018-08-17T20:27:57.608Z,100840.93
2018-08-17T20:30:26.254Z,100836.63
2018-08-17T20:32:55.029Z,100832.83
2018-08-17T20:35:23.213Z,100834.17
2018-08-17T20:37:53.550Z,100841.24
2018-08-17T20:40:22.014Z,100837.79
2018-08-17T20:42:50.394Z,100844.16
2018-08-17T20:45:19.007Z,100849.87
2018-08-17T20:47:47.220Z,100856.64
2018-08-17T20:50:19.092Z,100857.51
2018-08-17T20:52:53.304Z,100865.64
2018-08-17T20:55:21.616Z,100865.56
2018-08-17T20:57:55.127Z,100869.41
2018-08-17T21:00:24.865Z,100870.34
2018-08-17T21:02:53.097Z,100881.73
2018-08-17T21:05:22.025Z,100880.13
2018-08-17T21:07:50.512Z,100889.10
2018-08-17T21:10:18.835Z,100903.19
2018-08-17T21:12:48.122Z,100909.91
2018-08-17T21:15:16.541Z,100909.89
2018-08-17T21:17:44.727Z,100917.36
2018-08-17T21:20:12.943Z,100919.22
2018-08-17T21:22:41.170Z,100929.49
2018-08-17T21:25:09.448Z,100932.95
2018-08-17T21:27:37.639Z,100931.05
2018-08-17T21:30:06.436Z,100926.33
2018-08-17T21:32:34.677Z,100930.69
2018-08-17T21:35:02.986Z,100933.74
2018-08-17T21:37:35.398Z,100932.15
2018-08-17T21:40:04.011Z,100940.66
2018-08-17T21:42:32.500Z,100932.48
2018-08-17T21:45:01.843Z,100934.52
2018-08-17T21:47:30.569Z,100936.14
2018-08-17T21:52:45.261Z,100939.89
2018-08-17T21:55:14.535Z,100949.14
2018-08-17T21:57:42.844Z,100947.80
2018-08-17T22:00:18.396Z,100943.33
2018-08-17T22:02:49.891Z,100942.27
2018-08-17T22:05:25.461Z,100948.02
2018-08-17T22:07:53.745Z,100942.61
2018-08-17T22:10:21.980Z,100944.98
2018-08-17T22:12:50.535Z,100952.34
2018-08-17T22:15:19.499Z,100946.05
2018-08-17T22:17:47.755Z,100951.95
2018-08-17T22:20:16.057Z,100952.28
2018-08-17T22:22:44.286Z,100956.10
2018-08-17T22:25:14.385Z,100947.42
2018-08-17T22:27:42.568Z,100947.06
2018-08-17T22:30:17.418Z,100940.75
2018-08-17T22:32:45.740Z,100947.59
2018-08-17T22:35:14.035Z,100954.65
2018-08-17T22:37:42.274Z,100950.85
2018-08-17T22:40:10.458Z,100949.28
2018-08-17T22:42:39.480Z,100944.16
2018-08-17T22:45:07.670Z,100950.27
2018-08-17T22:47:35.916Z,100954.91
2018-08-17T22:50:04.181Z,100956.28
2018-08-17T22:52:33.178Z,100953.55
2018-08-17T22:55:03.822Z,100967.98
2018-08-17T22:57:32.567Z,100965.78
2018-08-17T23:00:18.620Z,100969.61
2018-08-17T23:02:47.936Z,100966.98
2018-08-17T23:05:19.237Z,100966.19
2018-08-17T23:07:47.613Z,100970.80
2018-08-17T23:10:18.404Z,100970.16
2018-08-17T23:12:47.500Z,100970.84
2018-08-17T23:15:15.656Z,100967.44
2018-08-17T23:17:50.491Z,100971.53
2018-08-17T23:20:23.863Z,100964.58
2018-08-17T23:22:53.070Z,100965.10
2018-08-17T23:25:21.158Z,100973.58
2018-08-17T23:27:49.938Z,100974.41
2018-08-17T23:30:18.116Z,100973.42
2018-08-17T23:32:46.521Z,100971.16
2018-08-17T23:35:14.668Z,100979.44
2018-08-17T23:37:42.771Z,100972.89
2018-08-17T23:40:10.988Z,100974.38
2018-08-17T23:45:14.850Z,100973.88
2018-08-17T23:47:43.043Z,100969.48
2018-08-17T23:50:12.319Z,100964.14
2018-08-17T23:52:40.482Z,100967.92
2018-08-17T23:55:10.647Z,100959.89
2018-08-17T23:57:38.725Z,100962.44
